Time;durP1;ratioP1;P1;durP2;ratioP2;P2;SDS_P1;SDS_P2;PMS_P1;PMS_P2;Temp;Humidity;BMP_temperature;BMP_pressure;BME280_temperature;BME280_humidity;BME280_pressure;Samples;Min_cycle;Max_cycle;Signal;HPM_P1;HPM_P2
2021/06/26 00:01:15;;;;;;;7.45;6.45;;;17.90;82.90;;;;;;5013045;28;20072;-72
2021/06/26 00:03:41;;;;;;;7.65;6.65;;;18.00;83.00;;;;;;5012963;28;20037;-73
2021/06/26 00:06:07;;;;;;;12.95;7.15;;;18.00;83.00;;;;;;5011274;28;20032;-74
2021/06/26 00:08:33;;;;;;;12.98;7.18;;;18.00;83.10;;;;;;5013002;28;20038;-74
2021/06/26 00:11:03;;;;;;;10.20;6.80;;;18.00;83.00;;;;;;4995122;28;20064;-73
2021/06/26 00:13:29;;;;;;;8.13;6.87;;;18.00;82.70;;;;;;5031861;28;20033;-74
2021/06/26 00:15:55;;;;;;;11.43;6.78;;;18.00;82.60;;;;;;5032664;28;20507;-74
2021/06/26 00:18:20;;;;;;;8.80;6.57;;;18.00;82.60;;;;;;5032326;28;20057;-74
2021/06/26 00:20:46;;;;;;;10.02;6.25;;;18.00;82.70;;;;;;5032506;28;20534;-74
2021/06/26 00:23:14;;;;;;;7.78;6.85;;;18.00;82.80;;;;;;5014610;28;20033;-74
2021/06/26 00:25:42;;;;;;;9.13;6.30;;;18.00;83.00;;;;;;5032287;28;20029;-74
2021/06/26 00:28:08;;;;;;;8.10;6.18;;;18.00;82.70;;;;;;5014617;28;20024;-73
2021/06/26 00:30:34;;;;;;;9.88;7.25;;;18.00;82.40;;;;;;5014056;28;20017;-74
2021/06/26 00:32:59;;;;;;;9.70;6.10;;;18.00;82.20;;;;;;5012545;28;20025;-72
2021/06/26 00:35:25;;;;;;;8.68;6.40;;;17.90;82.30;;;;;;5030269;28;20038;-72
2021/06/26 00:37:51;;;;;;;10.50;7.03;;;18.00;82.50;;;;;;5030086;28;20072;-72
2021/06/26 00:40:19;;;;;;;10.32;7.00;;;18.00;82.10;;;;;;5030999;28;20068;-72
2021/06/26 00:42:45;;;;;;;9.75;6.93;;;18.00;82.00;;;;;;5030739;28;20022;-70
2021/06/26 00:45:16;;;;;;;10.18;6.32;;;18.00;82.00;;;;;;5030793;28;20025;-72
2021/06/26 00:47:42;;;;;;;8.68;6.78;;;18.00;82.20;;;;;;5013609;28;20025;-71
2021/06/26 00:50:34;;;;;;;6.95;6.20;;;18.00;82.00;;;;;;5014263;28;20028;-73
2021/06/26 00:52:59;;;;;;;;;;;18.00;81.50;;;;;;5032374;28;20131;-73
2021/06/26 00:55:25;;;;;;;8.88;6.65;;;18.00;81.50;;;;;;5017606;28;20387;-73
2021/06/26 00:57:58;;;;;;;9.65;6.30;;;17.90;82.10;;;;;;4993838;28;20032;-72
2021/06/26 01:00:25;;;;;;;8.20;6.13;;;18.00;82.40;;;;;;5011849;28;20030;-73
2021/06/26 01:02:51;;;;;;;9.07;6.25;;;18.00;81.80;;;;;;4994060;28;20029;-72
2021/06/26 01:05:17;;;;;;;11.98;7.20;;;17.90;82.20;;;;;;4994189;28;20121;-72
2021/06/26 01:07:43;;;;;;;10.23;6.35;;;17.90;82.10;;;;;;5011659;28;20026;-73
2021/06/26 01:10:09;;;;;;;13.18;6.93;;;17.90;82.40;;;;;;5011604;28;20033;-73
2021/06/26 01:12:35;;;;;;;10.48;6.97;;;17.90;82.00;;;;;;5023256;28;20132;-72
2021/06/26 01:15:01;;;;;;;11.60;7.20;;;17.80;82.20;;;;;;5013899;28;20033;-72
2021/06/26 01:17:27;;;;;;;10.95;6.78;;;17.80;82.20;;;;;;5013462;28;20025;-72
2021/06/26 01:19:52;;;;;;;9.55;6.70;;;17.70;82.30;;;;;;5031834;28;20025;-72
2021/06/26 01:22:25;;;;;;;11.45;7.95;;;17.80;82.40;;;;;;5031361;28;20053;-71
2021/06/26 01:24:53;;;;;;;9.70;6.95;;;17.80;82.20;;;;;;5031042;28;20150;-73
2021/06/26 01:27:18;;;;;;;7.63;6.85;;;17.80;82.40;;;;;;5030770;28;20025;-72
2021/06/26 01:29:50;;;;;;;7.47;6.60;;;17.90;82.40;;;;;;5029729;28;20568;-71
2021/06/26 01:32:17;;;;;;;9.55;6.63;;;17.90;82.30;;;;;;5029967;28;20479;-72
2021/06/26 01:34:43;;;;;;;8.63;6.90;;;17.90;82.30;;;;;;5011750;28;20029;-72
2021/06/26 01:37:10;;;;;;;6.60;6.00;;;18.00;82.00;;;;;;5011064;28;20041;-71
2021/06/26 01:39:35;;;;;;;7.80;6.45;;;17.90;82.30;;;;;;5011295;28;20030;-72
2021/06/26 01:42:01;;;;;;;7.15;6.20;;;18.00;82.40;;;;;;5011173;28;20439;-72
2021/06/26 01:44:27;;;;;;;7.65;6.18;;;18.00;82.30;;;;;;5011292;28;20431;-72
2021/06/26 01:46:52;;;;;;;9.32;6.22;;;18.00;82.10;;;;;;5010884;28;20022;-73
2021/06/26 01:49:18;;;;;;;10.40;6.47;;;18.00;81.90;;;;;;5011363;28;20538;-73
2021/06/26 01:51:44;;;;;;;10.20;6.40;;;18.00;82.10;;;;;;5011083;28;20022;-73
2021/06/26 01:54:14;;;;;;;9.15;6.70;;;17.90;82.70;;;;;;5006600;28;20358;-73
2021/06/26 01:56:40;;;;;;;7.40;5.90;;;17.90;82.90;;;;;;5002996;28;20018;-73
2021/06/26 01:59:06;;;;;;;10.40;6.38;;;17.90;83.20;;;;;;5010996;28;20029;-73
2021/06/26 02:01:33;;;;;;;7.38;6.40;;;17.90;83.10;;;;;;5010734;28;20492;-73
2021/06/26 02:03:59;;;;;;;10.60;6.50;;;17.90;82.70;;;;;;5011021;28;20105;-73
2021/06/26 02:06:25;;;;;;;26.58;15.32;;;18.00;82.80;;;;;;5010907;28;20034;-73
2021/06/26 02:08:50;;;;;;;47.05;27.40;;;17.90;82.70;;;;;;5010773;28;20101;-73
2021/06/26 02:11:16;;;;;;;189.65;103.63;;;18.00;82.60;;;;;;4994282;28;20025;-71
2021/06/26 02:13:41;;;;;;;43.88;24.65;;;18.00;82.60;;;;;;5030407;28;20079;-71
2021/06/26 02:16:07;;;;;;;34.28;17.88;;;18.00;82.30;;;;;;5030349;28;20550;-72
2021/06/26 02:18:33;;;;;;;55.25;33.15;;;18.00;82.30;;;;;;5013212;28;20040;-72
2021/06/26 02:21:01;;;;;;;119.72;62.92;;;18.00;82.40;;;;;;5030468;28;20018;-71
2021/06/26 02:23:27;;;;;;;19.52;12.60;;;18.00;82.60;;;;;;5030342;28;20036;-73
2021/06/26 02:25:53;;;;;;;23.25;11.85;;;18.00;82.40;;;;;;5030725;28;20491;-73
2021/06/26 02:28:19;;;;;;;35.22;19.52;;;18.00;82.20;;;;;;5030256;28;20025;-73
2021/06/26 02:30:45;;;;;;;11.90;7.97;;;18.00;82.50;;;;;;5012965;28;20081;-72
2021/06/26 02:33:12;;;;;;;13.65;9.52;;;18.00;82.60;;;;;;5030439;28;20033;-72
2021/06/26 02:35:38;;;;;;;8.77;7.03;;;18.00;82.80;;;;;;5030098;28;20536;-72
2021/06/26 02:38:04;;;;;;;11.90;7.60;;;18.00;82.60;;;;;;5012428;28;20030;-72
2021/06/26 02:40:31;;;;;;;11.63;7.90;;;17.90;82.50;;;;;;5032228;28;20033;-71
2021/06/26 02:42:57;;;;;;;8.00;6.47;;;18.00;82.70;;;;;;5016750;28;20372;-71
2021/06/26 02:45:25;;;;;;;8.40;6.45;;;18.00;82.60;;;;;;5034049;28;20159;-72
2021/06/26 02:47:51;;;;;;;11.70;7.15;;;18.00;82.30;;;;;;5033930;28;20036;-73
2021/06/26 02:50:17;;;;;;;8.63;6.78;;;18.00;82.40;;;;;;5016257;28;20025;-72
2021/06/26 02:52:42;;;;;;;8.95;6.70;;;17.90;82.50;;;;;;5016138;28;20044;-71
2021/06/26 02:55:09;;;;;;;8.50;6.40;;;17.90;82.60;;;;;;5001367;28;20093;-72
2021/06/26 02:57:35;;;;;;;9.10;6.25;;;17.80;82.80;;;;;;4994341;28;20026;-71
2021/06/26 03:00:00;;;;;;;9.82;6.97;;;17.70;83.20;;;;;;4994039;28;20034;-73
2021/06/26 03:02:27;;;;;;;12.27;6.65;;;17.80;83.20;;;;;;4979809;28;20056;-72
2021/06/26 03:04:52;;;;;;;7.32;6.22;;;17.80;83.10;;;;;;5014116;28;20110;-72
2021/06/26 03:07:18;;;;;;;11.23;6.68;;;17.80;83.20;;;;;;5013460;28;20487;-72
2021/06/26 03:09:46;;;;;;;10.73;7.07;;;17.80;83.40;;;;;;5013937;28;20108;-72
2021/06/26 03:12:11;;;;;;;9.73;6.75;;;17.70;83.50;;;;;;5015927;28;20060;-72
2021/06/26 03:14:37;;;;;;;11.75;7.22;;;17.70;83.60;;;;;;5033546;28;20022;-72
2021/06/26 03:17:03;;;;;;;12.02;6.93;;;17.70;83.50;;;;;;5015799;28;20025;-72
2021/06/26 03:19:28;;;;;;;7.32;6.45;;;17.50;83.50;;;;;;5033393;28;20314;-73
2021/06/26 03:21:54;;;;;;;16.35;7.95;;;17.60;84.20;;;;;;5015835;28;20467;-71
2021/06/26 03:24:19;;;;;;;12.10;7.65;;;17.50;83.60;;;;;;5033322;28;20485;-72
2021/06/26 03:26:46;;;;;;;9.05;6.80;;;17.50;83.90;;;;;;5015351;28;20534;-71
2021/06/26 03:29:12;;;;;;;14.30;8.30;;;17.50;83.80;;;;;;5033288;28;20021;-71
2021/06/26 03:31:37;;;;;;;11.75;7.70;;;17.50;83.70;;;;;;5033150;28;20100;-71
2021/06/26 03:34:03;;;;;;;10.43;7.97;;;17.60;83.50;;;;;;5033055;28;20053;-72
2021/06/26 03:36:29;;;;;;;13.18;7.47;;;17.60;83.30;;;;;;5015078;28;20120;-73
2021/06/26 03:38:55;;;;;;;14.15;8.50;;;17.70;83.70;;;;;;5033467;28;20052;-73
2021/06/26 03:41:25;;;;;;;12.90;7.57;;;17.70;83.80;;;;;;5033156;28;20459;-72
2021/06/26 03:43:52;;;;;;;13.18;7.80;;;17.70;84.30;;;;;;5033191;28;20128;-72
2021/06/26 03:46:20;;;;;;;9.75;7.60;;;17.80;84.10;;;;;;5015296;28;20033;-71
2021/06/26 03:48:48;;;;;;;11.98;8.20;;;17.80;84.20;;;;;;5033128;28;20025;-72
2021/06/26 03:51:16;;;;;;;12.80;8.98;;;17.80;84.60;;;;;;5032473;28;20025;-72
2021/06/26 03:53:41;;;;;;;16.25;8.32;;;17.80;84.50;;;;;;5032826;28;20032;-72
2021/06/26 03:56:07;;;;;;;10.95;7.80;;;17.90;84.60;;;;;;4992319;28;20030;-72
2021/06/26 03:58:32;;;;;;;11.32;8.18;;;17.80;84.40;;;;;;4992251;28;20058;-72
2021/06/26 04:00:58;;;;;;;11.35;8.32;;;17.80;84.20;;;;;;4975894;28;20113;-72
2021/06/26 04:03:24;;;;;;;11.93;8.60;;;17.80;84.10;;;;;;5008975;28;20156;-72
2021/06/26 04:05:50;;;;;;;12.30;8.65;;;17.80;83.90;;;;;;5012620;28;20034;-71
2021/06/26 04:08:16;;;;;;;10.77;8.00;;;17.80;83.40;;;;;;5012527;28;20100;-72
2021/06/26 04:10:42;;;;;;;10.63;7.53;;;17.70;84.10;;;;;;5012824;28;20546;-72
2021/06/26 04:13:08;;;;;;;8.75;6.93;;;17.80;83.50;;;;;;5028685;28;20036;-72
2021/06/26 04:15:33;;;;;;;12.25;7.65;;;17.90;83.90;;;;;;5032429;28;20018;-72
2021/06/26 04:17:59;;;;;;;12.77;7.60;;;17.90;83.90;;;;;;5032105;28;20445;-72
2021/06/26 04:20:28;;;;;;;10.02;7.40;;;18.00;83.50;;;;;;5032319;28;20093;-71
2021/06/26 04:22:53;;;;;;;12.30;7.05;;;18.00;83.40;;;;;;5032319;28;20029;-72
2021/06/26 04:25:19;;;;;;;12.10;7.10;;;18.10;83.00;;;;;;5032104;28;20029;-72
2021/06/26 04:27:46;;;;;;;7.72;6.15;;;18.00;82.70;;;;;;5031933;28;20088;-72
2021/06/26 04:30:13;;;;;;;8.68;5.95;;;18.10;82.70;;;;;;5031924;28;20451;-73
2021/06/26 04:32:40;;;;;;;10.77;6.97;;;18.20;82.40;;;;;;5014488;28;20439;-73
2021/06/26 04:35:17;;;;;;;10.15;6.35;;;18.40;82.10;;;;;;5022728;28;20465;-73
2021/06/26 04:37:43;;;;;;;7.60;5.93;;;18.50;81.40;;;;;;5009802;28;20034;-73
2021/06/26 04:40:09;;;;;;;11.55;6.22;;;18.60;80.90;;;;;;4992809;28;20026;-73
2021/06/26 04:42:35;;;;;;;9.23;5.57;;;18.60;80.40;;;;;;5005130;28;20507;-73
2021/06/26 04:45:00;;;;;;;6.65;5.10;;;18.70;80.30;;;;;;5011439;28;20147;-73
2021/06/26 04:47:28;;;;;;;6.65;5.88;;;18.80;79.90;;;;;;5011268;28;20022;-73
2021/06/26 04:49:54;;;;;;;11.88;6.25;;;19.00;79.50;;;;;;5011762;28;20101;-73
2021/06/26 04:52:20;;;;;;;9.02;5.80;;;19.00;78.60;;;;;;5011467;28;20102;-73
2021/06/26 04:54:45;;;;;;;6.13;5.53;;;18.90;78.10;;;;;;5010854;28;20026;-73
2021/06/26 04:57:11;;;;;;;9.65;5.43;;;19.00;78.50;;;;;;5009622;28;20092;-73
2021/06/26 04:59:39;;;;;;;9.48;5.82;;;19.10;78.50;;;;;;5011164;28;20129;-73
2021/06/26 05:02:04;;;;;;;6.15;5.30;;;19.10;78.00;;;;;;5011220;28;20025;-73
2021/06/26 05:04:30;;;;;;;6.90;5.82;;;19.20;78.00;;;;;;5011277;28;20021;-72
2021/06/26 05:06:56;;;;;;;7.20;5.65;;;19.20;77.30;;;;;;5011326;28;20022;-72
2021/06/26 05:09:23;;;;;;;11.27;6.30;;;19.40;77.60;;;;;;5011547;28;20050;-73
2021/06/26 05:14:24;;;;;;;7.75;5.88;;;19.80;76.50;;;;;;5010204;28;20050;-66
2021/06/26 05:16:52;;;;;;;7.38;5.18;;;20.00;75.00;;;;;;5014266;28;20472;-66
2021/06/26 05:19:17;;;;;;;9.63;5.43;;;20.60;74.30;;;;;;5007644;28;20129;-66
2021/06/26 05:21:43;;;;;;;301.08;238.18;;;20.90;72.10;;;;;;5009248;28;20113;-66
2021/06/26 05:24:08;;;;;;;11.02;6.78;;;21.20;71.20;;;;;;5007723;28;20045;-66
2021/06/26 05:26:34;;;;;;;54.03;36.05;;;21.40;69.80;;;;;;5010938;28;20368;-66
2021/06/26 05:28:59;;;;;;;38.90;24.42;;;21.60;69.40;;;;;;5011245;28;20218;-67
2021/06/26 05:31:25;;;;;;;44.25;28.50;;;21.90;68.50;;;;;;5011566;28;20028;-66
2021/06/26 05:33:51;;;;;;;36.83;22.70;;;22.10;67.80;;;;;;5011198;28;20565;-67
2021/06/26 05:36:16;;;;;;;11.32;7.20;;;22.30;67.60;;;;;;5011146;28;20076;-68
2021/06/26 05:38:42;;;;;;;14.40;9.30;;;22.20;67.30;;;;;;5011883;28;20030;-67
2021/06/26 05:41:08;;;;;;;16.55;7.45;;;22.20;66.10;;;;;;5011203;28;20034;-66
2021/06/26 05:43:35;;;;;;;8.15;5.55;;;22.10;66.90;;;;;;5011256;28;20109;-66
2021/06/26 05:46:00;;;;;;;11.27;6.55;;;21.90;67.30;;;;;;5010576;28;20029;-66
2021/06/26 05:48:26;;;;;;;8.50;5.60;;;21.40;68.20;;;;;;5010834;28;20030;-68
2021/06/26 05:50:51;;;;;;;13.05;6.13;;;20.90;70.70;;;;;;5007986;28;20026;-68
2021/06/26 05:53:20;;;;;;;9.50;5.63;;;21.00;70.80;;;;;;5001150;28;20056;-67
2021/06/26 05:56:01;;;;;;;7.45;5.53;;;21.10;70.60;;;;;;5009943;28;20053;-67
2021/06/26 05:58:33;;;;;;;8.98;6.03;;;21.50;69.50;;;;;;5009381;28;20105;-67
2021/06/26 06:00:59;;;;;;;16.58;8.13;;;21.70;68.40;;;;;;5010625;28;20026;-66
2021/06/26 06:03:24;;;;;;;9.82;6.35;;;21.80;68.00;;;;;;5009893;28;20113;-67
2021/06/26 06:05:51;;;;;;;10.52;7.10;;;21.70;68.10;;;;;;5011149;28;20101;-67
2021/06/26 06:08:18;;;;;;;14.52;6.80;;;21.90;67.80;;;;;;5010991;28;20449;-66
2021/06/26 06:10:43;;;;;;;11.88;6.95;;;22.10;67.00;;;;;;5011005;28;20080;-66
2021/06/26 06:13:17;;;;;;;15.32;7.75;;;22.10;66.90;;;;;;5010497;28;20395;-66
2021/06/26 06:15:44;;;;;;;11.45;6.53;;;22.80;66.00;;;;;;5015278;28;20033;-66
2021/06/26 06:18:13;;;;;;;8.48;6.32;;;24.50;61.50;;;;;;5014760;28;20029;-66
2021/06/26 06:20:39;;;;;;;9.15;5.95;;;25.60;56.00;;;;;;5012697;28;20057;-66
2021/06/26 06:23:06;;;;;;;11.50;7.20;;;26.90;53.40;;;;;;5012380;28;20068;-66
2021/06/26 06:25:32;;;;;;;8.43;7.45;;;27.00;51.30;;;;;;5012318;28;20018;-67
2021/06/26 06:28:01;;;;;;;10.32;7.10;;;;;;;;;;5014584;28;20026;-67
2021/06/26 06:30:27;;;;;;;11.32;7.47;;;;;;;;;;5015299;28;20033;-67
2021/06/26 06:32:53;;;;;;;9.65;7.03;;;;;;;;;;5013217;28;20014;-66
2021/06/26 06:35:19;;;;;;;13.50;8.60;;;;;;;;;;5014870;28;20048;-66
2021/06/26 06:37:45;;;;;;;9.32;5.88;;;;;;;;;;5009753;28;20198;-67
2021/06/26 06:40:13;;;;;;;11.98;7.57;;;32.60;38.90;;;;;;5014471;28;20072;-67
2021/06/26 06:42:40;;;;;;;14.13;8.48;;;33.10;36.20;;;;;;5014786;28;20088;-67
2021/06/26 06:45:06;;;;;;;9.70;7.93;;;33.40;35.50;;;;;;5014928;28;20022;-67
2021/06/26 06:47:32;;;;;;;13.52;10.55;;;33.90;34.50;;;;;;5013156;28;20516;-67
2021/06/26 06:49:58;;;;;;;10.68;9.65;;;32.70;35.50;;;;;;5014498;28;20025;-67
2021/06/26 06:52:23;;;;;;;13.63;6.43;;;31.00;38.10;;;;;;5014714;28;20026;-67
2021/06/26 06:54:49;;;;;;;6.70;5.55;;;31.90;37.60;;;;;;5014519;28;20034;-69
2021/06/26 06:57:14;;;;;;;10.88;9.75;;;33.40;35.70;;;;;;5007856;28;20411;-70
2021/06/26 06:59:40;;;;;;;8.68;7.88;;;32.60;34.70;;;;;;5010997;28;20080;-71
2021/06/26 07:02:05;;;;;;;13.25;10.75;;;31.70;37.10;;;;;;5014591;28;20508;-67
2021/06/26 07:04:31;;;;;;;15.95;11.18;;;31.00;38.00;;;;;;5014463;28;20488;-71
2021/06/26 07:06:57;;;;;;;28.80;25.73;;;29.60;40.80;;;;;;5014333;28;20506;-69
2021/06/26 07:09:23;;;;;;;19.50;14.00;;;28.70;42.10;;;;;;5013435;28;20155;-65
2021/06/26 07:11:49;;;;;;;15.88;13.07;;;28.30;43.10;;;;;;5014685;28;20074;-66
2021/06/26 07:14:14;;;;;;;15.80;11.55;;;28.30;43.50;;;;;;5014810;28;20030;-68
2021/06/26 07:16:40;;;;;;;16.67;14.02;;;29.50;41.30;;;;;;5015014;28;20231;-69
2021/06/26 07:19:05;;;;;;;11.60;9.00;;;30.60;40.10;;;;;;5014572;28;20030;-69
2021/06/26 07:21:32;;;;;;;27.92;17.10;;;32.70;37.50;;;;;;5014288;28;20041;-68
2021/06/26 07:23:58;;;;;;;29.98;18.27;;;34.50;33.70;;;;;;5013986;28;20053;-69
2021/06/26 07:26:24;;;;;;;11.63;9.27;;;;;;;;;;5013003;28;20061;-68
2021/06/26 07:28:49;;;;;;;11.15;9.90;;;32.90;34.00;;;;;;5014434;28;20076;-68
2021/06/26 07:31:15;;;;;;;14.10;11.70;;;31.40;36.90;;;;;;4996342;28;20076;-72
2021/06/26 07:33:41;;;;;;;9.52;8.50;;;31.60;37.10;;;;;;5014084;28;20127;-72
2021/06/26 07:36:08;;;;;;;13.80;12.38;;;32.50;35.30;;;;;;5013107;28;20073;-75
2021/06/26 07:38:34;;;;;;;9.68;8.63;;;31.40;36.60;;;;;;5014129;28;20056;-75
2021/06/26 07:40:59;;;;;;;10.38;8.93;;;30.80;36.40;;;;;;5013819;28;20018;-74
2021/06/26 07:43:25;;;;;;;14.02;8.73;;;30.00;38.00;;;;;;4996088;28;20030;-74
2021/06/26 07:45:51;;;;;;;16.10;11.63;;;30.10;38.50;;;;;;5013639;28;20503;-75
2021/06/26 07:48:17;;;;;;;9.43;8.52;;;29.90;38.80;;;;;;5012168;28;20033;-73
2021/06/26 07:50:49;;;;;;;12.63;9.85;;;30.00;38.60;;;;;;5012483;28;20427;-72
2021/06/26 07:53:15;;;;;;;12.52;8.38;;;30.00;39.90;;;;;;5014644;28;20038;-74
2021/06/26 07:55:40;;;;;;;24.33;14.75;;;30.70;37.40;;;;;;5014169;28;20112;-73
2021/06/26 07:58:06;;;;;;;19.13;14.25;;;30.90;38.00;;;;;;5013658;28;20112;-75
2021/06/26 08:00:31;;;;;;;12.02;8.93;;;30.70;38.00;;;;;;4996055;28;20033;-74
2021/06/26 08:02:57;;;;;;;286.88;241.25;;;29.90;39.10;;;;;;5014394;28;20056;-75
2021/06/26 08:05:22;;;;;;;15.98;10.55;;;29.40;40.00;;;;;;5013846;28;20026;-72
2021/06/26 08:07:48;;;;;;;35.28;23.38;;;30.00;40.80;;;;;;5013291;28;20033;-72
2021/06/26 08:10:14;;;;;;;13.75;7.90;;;30.90;38.10;;;;;;5013503;28;20077;-71
2021/06/26 08:12:39;;;;;;;20.25;13.85;;;32.20;35.40;;;;;;5013244;28;20117;-74
2021/06/26 08:15:05;;;;;;;20.98;13.73;;;31.90;35.60;;;;;;5013857;28;20030;-75
2021/06/26 08:17:31;;;;;;;12.98;9.13;;;31.40;36.50;;;;;;5013067;28;20137;-72
2021/06/26 08:19:57;;;;;;;15.70;10.25;;;30.70;37.70;;;;;;5013418;28;20520;-72
2021/06/26 08:22:22;;;;;;;10.63;7.65;;;30.40;38.60;;;;;;5012843;28;20022;-67
2021/06/26 08:24:48;;;;;;;11.88;8.27;;;29.50;39.60;;;;;;5012331;28;20133;-68
2021/06/26 08:27:13;;;;;;;12.05;9.13;;;29.40;39.80;;;;;;5012546;28;20041;-69
2021/06/26 08:29:39;;;;;;;11.45;9.50;;;30.00;38.20;;;;;;5012633;28;20030;-67
2021/06/26 08:32:05;;;;;;;9.13;7.18;;;29.30;40.10;;;;;;5027760;28;20018;-67
2021/06/26 08:34:31;;;;;;;11.90;8.15;;;29.10;40.00;;;;;;5001109;28;20015;-67
2021/06/26 08:36:56;;;;;;;23.35;14.32;;;30.20;38.70;;;;;;5001897;28;20508;-65
2021/06/26 08:39:22;;;;;;;12.68;7.85;;;32.40;35.80;;;;;;5007456;28;20033;-65
2021/06/26 08:41:49;;;;;;;10.27;8.02;;;33.70;32.70;;;;;;5012411;28;20038;-67
2021/06/26 08:44:17;;;;;;;17.52;10.63;;;32.30;34.90;;;;;;5012723;28;20399;-66
2021/06/26 08:46:46;;;;;;;15.93;9.60;;;32.60;36.40;;;;;;5012141;28;20029;-66
2021/06/26 08:49:12;;;;;;;17.63;9.68;;;33.10;35.10;;;;;;5005921;28;20073;-67
2021/06/26 08:51:38;;;;;;;12.07;6.43;;;32.90;35.00;;;;;;4992728;28;20039;-71
2021/06/26 08:54:09;;;;;;;5.32;4.88;;;31.70;35.10;;;;;;4992417;28;20022;-68
2021/06/26 08:56:35;;;;;;;10.43;7.90;;;;;;;;;;4992329;28;20060;-69
2021/06/26 08:59:01;;;;;;;6.28;5.10;;;;;;;;;;4992512;28;20432;-70
2021/06/26 09:01:27;;;;;;;8.55;5.28;;;;;;;;;;4992526;28;20443;-69
2021/06/26 09:04:02;;;;;;;12.32;6.72;;;;;;;;;;4992560;28;20455;-68
2021/06/26 09:06:30;;;;;;;8.65;6.78;;;;;;;;;;4979232;28;20022;-69
2021/06/26 09:08:56;;;;;;;8.07;6.05;;;;;;;;;;4999856;28;20030;-70
2021/06/26 09:11:25;;;;;;;8.90;5.85;;;;;;;;;;4987115;28;20033;-69
2021/06/26 09:13:51;;;;;;;4.57;3.92;;;;;;;;;;5011854;28;20053;-69
2021/06/26 09:16:17;;;;;;;5.95;5.10;;;;;;;;;;5011639;28;20034;-68
2021/06/26 09:18:50;;;;;;;11.80;7.72;;;;;;;;;;5010601;28;20034;-69
2021/06/26 09:21:31;;;;;;;10.10;7.55;;;;;;;;;;5011632;28;20036;-67
2021/06/26 09:24:01;;;;;;;34.33;12.68;;;;;;;;;;5005730;28;20030;-68
2021/06/26 09:26:28;;;;;;;6.65;4.07;;;;;;;;;;5007617;28;20060;-67
2021/06/26 09:28:54;;;;;;;5.15;4.00;;;;;;;;;;5011634;28;20442;-67
2021/06/26 09:31:21;;;;;;;7.82;4.10;;;;;;;;;;5007119;28;20030;-66
2021/06/26 09:33:58;;;;;;;8.98;5.00;;;;;;;;;;4991430;28;20026;-67
2021/06/26 09:36:33;;;;;;;7.85;4.93;;;;;;;;;;4989746;28;20022;-70
2021/06/26 09:39:07;;;;;;;5.10;3.72;;;;;;;;;;4988921;28;20492;-69
2021/06/26 09:41:34;;;;;;;6.38;4.43;;;;;;;;;;4992122;28;20026;-70
2021/06/26 09:44:12;;;;;;;5.00;3.55;;;;;;;;;;5010004;28;20120;-69
2021/06/26 09:46:46;;;;;;;5.97;4.53;;;;;;;;;;5011212;28;20138;-69
2021/06/26 09:49:12;;;;;;;8.43;6.03;;;;;;;;;;5010872;28;20045;-66
2021/06/26 09:51:38;;;;;;;6.15;5.40;;;;;;;;;;5010225;28;20045;-66
2021/06/26 09:54:05;;;;;;;7.28;5.78;;;;;;;;;;5011713;28;20026;-65
2021/06/26 09:56:37;;;;;;;7.60;6.80;;;;;;;;;;5008762;28;20033;-65
2021/06/26 09:59:03;;;;;;;10.45;7.15;;;;;;;;;;5012269;28;20034;-66
2021/06/26 10:01:30;;;;;;;6.85;6.18;;;;;;;;;;5011173;28;20025;-66
2021/06/26 10:03:56;;;;;;;6.88;6.13;;;;;;;;;;5010118;28;20037;-66
2021/06/26 10:06:22;;;;;;;6.55;5.40;;;;;;;;;;5009660;28;20030;-68
2021/06/26 10:08:49;;;;;;;6.75;6.15;;;;;;;;;;5009313;28;20026;-67
2021/06/26 10:11:15;;;;;;;11.85;6.70;;;;;;;;;;5009068;28;20018;-67
2021/06/26 10:13:41;;;;;;;9.32;6.53;;;;;;;;;;5008952;28;20112;-68
2021/06/26 10:16:07;;;;;;;8.38;6.38;;;;;;;;;;5009072;28;20030;-68
2021/06/26 10:18:35;;;;;;;8.07;6.57;;;;;;;;;;5009486;28;20099;-71
2021/06/26 10:21:01;;;;;;;117.10;87.25;;;;;;;;;;5012101;28;20022;-71
2021/06/26 10:23:31;;;;;;;143.40;73.95;;;;;;;;;;5011768;28;20034;-70
2021/06/26 10:25:58;;;;;;;11.73;9.15;;;;;;;;;;5025106;28;20084;-70
2021/06/26 10:28:24;;;;;;;7.22;5.78;;;;;;;;;;5003335;28;20022;-72
2021/06/26 10:31:06;;;;;;;9.02;6.85;;;;;;;;;;4992658;28;20077;-71
2021/06/26 10:33:32;;;;;;;35.97;20.70;;;;;;;;;;5005326;28;20369;-70
2021/06/26 10:35:59;;;;;;;13.60;8.43;;;;;;;;;;5012750;28;20038;-70
2021/06/26 10:38:39;;;;;;;13.68;9.02;;;;;;;;;;5010868;28;20029;-69
2021/06/26 10:41:14;;;;;;;22.98;13.10;;;;;;;;;;5012583;28;20026;-68
2021/06/26 10:43:40;;;;;;;13.23;8.07;;;;;;;;;;5012049;28;20057;-72
2021/06/26 10:46:15;;;;;;;10.82;8.25;;;;;;;;;;4995615;28;20528;-68
2021/06/26 10:48:42;;;;;;;12.05;8.75;;;;;;;;;;4990221;28;20022;-68
2021/06/26 10:51:09;;;;;;;9.35;6.88;;;;;;;;;;4990103;28;20022;-67
2021/06/26 10:53:37;;;;;;;11.15;7.93;;;;;;;;;;4990953;28;20388;-67
2021/06/26 10:56:05;;;;;;;8.63;6.32;;;;;;;;;;4993764;28;20026;-67
2021/06/26 10:58:32;;;;;;;6.53;5.80;;;;;;;;;;5006252;28;20029;-66
2021/06/26 11:00:58;;;;;;;13.38;7.18;;;;;;;;;;5011786;28;20108;-67
2021/06/26 11:03:30;;;;;;;8.93;6.85;;;;;;;;;;5011446;28;20177;-67
2021/06/26 11:05:57;;;;;;;8.02;6.35;;;;;;;;;;4997100;28;20572;-66
2021/06/26 11:08:24;;;;;;;8.07;6.65;;;;;;;;;;5005049;28;20030;-67
2021/06/26 11:11:00;;;;;;;10.35;7.88;;;;;;;;;;5012637;28;20021;-67
2021/06/26 11:13:27;;;;;;;12.65;7.85;;;;;;;;;;5043955;23;20041;-71
2021/06/26 11:16:01;;;;;;;8.55;7.03;;;;;;;;;;5031496;28;20095;-71
2021/06/26 11:18:29;;;;;;;6.40;5.90;;;;;;;;;;5033736;28;20108;-72
2021/06/26 11:20:58;;;;;;;9.15;5.60;;;;;;;;;;5032990;28;20037;-72
2021/06/26 11:23:29;;;;;;;7.20;5.95;;;;;;;;;;5032623;28;20101;-73
2021/06/26 11:26:02;;;;;;;9.77;6.05;;;;;;;;;;5015023;28;20030;-73
2021/06/26 11:28:28;;;;;;;6.60;5.80;;;;;;;;;;5007550;28;20029;-72
2021/06/26 11:31:02;;;;;;;8.10;7.25;;;;;;;;;;5013898;28;20022;-74
2021/06/26 11:33:39;;;;;;;13.48;10.40;;;;;;;;;;5025787;28;20021;-72
2021/06/26 11:36:09;;;;;;;9.00;6.85;;;;;;;;;;5015180;28;20029;-72
2021/06/26 11:38:37;;;;;;;8.60;7.07;;;;;;;;;;5033633;28;20066;-72
2021/06/26 11:41:11;;;;;;;8.73;6.57;;;;;;;;;;5016010;28;20030;-73
2021/06/26 11:43:38;;;;;;;8.68;6.63;;;;;;;;;;5030087;28;20048;-72
2021/06/26 11:46:05;;;;;;;8.98;6.85;;;;;;;;;;5022536;28;20038;-73
2021/06/26 11:48:31;;;;;;;10.00;7.03;;;;;;;;;;5016116;28;20033;-69
2021/06/26 11:51:09;;;;;;;8.52;6.45;;;;;;;;;;5017148;28;20468;-71
2021/06/26 11:53:40;;;;;;;8.27;7.45;;;;;;;;;;5013537;28;20030;-69
2021/06/26 11:56:06;;;;;;;7.70;7.00;;;;;;;;;;5013092;28;20033;-73
2021/06/26 11:58:36;;;;;;;22.20;17.38;;;;;;;;;;5012413;28;20391;-72
2021/06/26 12:01:03;;;;;;;9.75;7.68;;;;;;;;;;5013630;28;20033;-73
2021/06/26 12:03:30;;;;;;;8.75;7.53;;;;;;;;;;5012251;28;20083;-71
2021/06/26 12:06:15;;;;;;;18.02;15.20;;;;;;;;;;5024036;28;20061;-72
2021/06/26 12:09:01;;;;;;;36.35;25.27;;;;;;;;;;5015181;28;20476;-69
2021/06/26 12:11:28;;;;;;;13.38;11.05;;;;;;;;;;5024279;28;20030;-70
2021/06/26 12:13:58;;;;;;;233.13;155.10;;;;;;;;;;5005370;28;20181;-70
2021/06/26 12:16:25;;;;;;;13.80;10.23;;;;;;;;;;5024040;28;20152;-71
2021/06/26 12:18:53;;;;;;;13.75;10.48;;;;;;;;;;5014544;28;20037;-71
2021/06/26 12:21:20;;;;;;;15.63;10.07;;;;;;;;;;5031112;28;20053;-70
2021/06/26 12:23:46;;;;;;;14.57;10.52;;;;;;;;;;4998169;28;20036;-71
2021/06/26 12:26:16;;;;;;;10.35;8.40;;;;;;;;;;5013823;28;20036;-69
2021/06/26 12:28:42;;;;;;;10.85;8.93;;;;;;;;;;5032176;28;20033;-68
2021/06/26 12:31:09;;;;;;;12.07;8.25;;;;;;;;;;5031924;28;20021;-69
2021/06/26 12:33:35;;;;;;;12.98;9.63;;;;;;;;;;5032189;28;20191;-69
2021/06/26 12:36:12;;;;;;;97.75;64.00;;;;;;;;;;5032520;28;20084;-70
2021/06/26 12:38:38;;;;;;;14.90;9.48;;;;;;;;;;5032570;28;20033;-70
2021/06/26 12:41:04;;;;;;;9.32;7.25;;;;;;;;;;5014836;28;20025;-68
2021/06/26 12:43:36;;;;;;;7.75;6.55;;;;;;;;;;5032392;28;20079;-69
2021/06/26 12:46:02;;;;;;;9.80;8.63;;;;;;;;;;5014438;28;20045;-68
2021/06/26 12:48:37;;;;;;;13.82;9.98;;;;;;;;;;5008948;28;20077;-69
2021/06/26 12:51:18;;;;;;;10.43;8.80;;;;;;;;;;5011875;28;20026;-68
2021/06/26 12:53:45;;;;;;;10.93;6.78;;;;;;;;;;5015500;28;20022;-70
2021/06/26 12:56:16;;;;;;;8.48;7.05;;;;;;;;;;5031688;28;20034;-71
2021/06/26 12:59:01;;;;;;;32.63;20.55;;;;;;;;;;5031584;28;20535;-70
2021/06/26 13:01:43;;;;;;;9.23;7.65;;;;;;;;;;5031290;28;20040;-69
2021/06/26 13:04:11;;;;;;;10.82;7.50;;;;;;;;;;5030837;28;20021;-68
2021/06/26 13:06:50;;;;;;;8.30;6.97;;;;;;;;;;5024606;28;20074;-70
2021/06/26 13:09:17;;;;;;;9.70;6.80;;;;;;;;;;5024819;28;20451;-72
2021/06/26 13:11:43;;;;;;;10.40;7.95;;;;;;;;;;5036208;28;20017;-72
2021/06/26 13:14:11;;;;;;;8.98;7.25;;;;;;;;;;5051275;28;20374;-72
2021/06/26 13:16:37;;;;;;;11.30;7.15;;;;;;;;;;5033313;28;20028;-69
2021/06/26 13:19:04;;;;;;;8.77;7.13;;;;;;;;;;5033666;28;20021;-70